Emerald Coast — WDC9127 — position and weather

sailwx.info

Track history (hours):
 
Tides and Currents Weather Stations Pressure Air Temp Water Temp Dewpoint Dewpoint Depression Visibility Wind Speed Wind Dir Waves Ship Positions

Emerald Coast

Owner: Dann Marine Towing, LC, Chesapeake City, MD. More information available from US FCC via Universal Licensing System and Coast Guard Vessel Documentation Center.

Last reported at 2015-Jul-30 22:33 UTC. Time now 2015-Jul-30 23:02 UTC.
Position N 40°40' W 074°01'.

Length 28 m; draft 3 m.

Type: Towing. MMSI: 367097920.

Date/timePositionNaut miles runAvg speedWind from/ knotsBaromVisibWave heightAir tempDewpointWater temp
2015-Jul-30 22:33N 40°40' W 074°01'3 2.9
2015-Jul-30 21:33N 40°40' W 074°05'0 0.2
2015-Jul-30 20:33N 40°40' W 074°05'1 0.5
2015-Jul-30 19:33N 40°40' W 074°04'3 2.7
2015-Jul-30 18:33N 40°38' W 074°07'0 0.0
2015-Jul-30 17:20N 40°38' W 074°07'0 0.0
2015-Jul-30 16:30N 40°38' W 074°07'3 0.5
2015-Jul-30 11:33N 40°39' W 074°04'1 1.0
2015-Jul-30 10:33N 40°39' W 074°05'2 1.7
2015-Jul-30 09:33N 40°39' W 074°07'0 0.1
2015-Jul-30 08:32N 40°38' W 074°07'0 0.0
2015-Jul-30 07:30N 40°38' W 074°07'0 0.0
2015-Jul-30 06:32N 40°38' W 074°07'0 0.0
2015-Jul-30 05:30N 40°38' W 074°07'0 0.0
2015-Jul-30 04:11N 40°38' W 074°07'0 0.0
2015-Jul-30 03:12N 40°38' W 074°07'0 0.0
2015-Jul-30 02:29N 40°38' W 074°07'0 0.0
2015-Jul-30 01:26N 40°38' W 074°07'4 4.2
2015-Jul-30 00:33N 40°39' W 074°02'2 1.7
2015-Jul-29 23:33N 40°41' W 074°03'2 2.0
2015-Jul-29 22:33N 40°39' W 074°05'4 3.5
2015-Jul-29 21:33N 40°40' W 074°00'0 0.0
2015-Jul-29 20:33N 40°40' W 074°00'0 0.1
2015-Jul-29 19:33N 40°40' W 074°00'4 4.0
2015-Jul-29 18:33N 40°39' W 074°05'1 1.4
2015-Jul-29 17:30N 40°38' W 074°07'5 5.5
2015-Jul-29 16:33N 40°40' W 074°01'1 1.2
2015-Jul-29 15:33N 40°41' W 074°01'6 5.6
2015-Jul-29 14:33N 40°39' W 074°07'5 4.9
2015-Jul-29 13:30N 40°35' W 074°13'3 2.7
2015-Jul-29 12:33N 40°38' W 074°12'4 4.2
2015-Jul-29 11:33N 40°41' W 074°09'0 0.0
2015-Jul-29 10:33N 40°41' W 074°09'0 0.0
2015-Jul-29 09:33N 40°41' W 074°09'0 0.0
2015-Jul-29 08:33N 40°41' W 074°09'0 0.0
2015-Jul-29 07:33N 40°41' W 074°09'0 0.0
2015-Jul-29 06:33N 40°41' W 074°09'0 0.0
2015-Jul-29 05:33N 40°41' W 074°09'0 0.0
2015-Jul-29 04:33N 40°41' W 074°09'2 2.0
2015-Jul-29 03:33N 40°39' W 074°09'2 1.2
2015-Jul-29 01:33N 40°38' W 074°12'2 2.1
2015-Jul-29 00:33N 40°36' W 074°12'4 4.4
2015-Jul-28 23:33N 40°40' W 074°09'2 1.6
2015-Jul-28 22:33N 40°41' W 074°10'1 0.8
2015-Jul-28 21:33N 40°41' W 074°09'4 3.7
2015-Jul-28 20:33N 40°39' W 074°04'2 1.9
2015-Jul-28 19:33N 40°37' W 074°03'0 0.2
2015-Jul-28 18:33N 40°37' W 074°03'0 0.1
2015-Jul-28 17:33N 40°37' W 074°03'0 0.0
2015-Jul-28 16:33N 40°37' W 074°03'0 0.0
2015-Jul-28 15:33N 40°37' W 074°03'0 0.0
2015-Jul-28 14:33N 40°37' W 074°03'0 0.0
2015-Jul-28 13:33N 40°37' W 074°03'3 3.4
2015-Jul-28 12:33N 40°40' W 074°01'2 1.6
2015-Jul-28 11:33N 40°41' W 074°00'0 0.0
2015-Jul-28 10:33N 40°41' W 074°00'0 0.0
2015-Jul-28 09:33N 40°41' W 074°00'0 0.0
2015-Jul-28 08:33N 40°41' W 074°00'0 0.0
2015-Jul-28 07:33N 40°41' W 074°00'0 0.0
2015-Jul-28 06:33N 40°41' W 074°00'1 1.5
2015-Jul-28 05:33N 40°40' W 074°00'0 0.0
2015-Jul-28 04:33N 40°40' W 074°00'0 0.0
2015-Jul-28 03:33N 40°40' W 074°00'0 0.0
2015-Jul-28 02:33N 40°40' W 074°00'0 0.0
2015-Jul-28 01:33N 40°40' W 074°00'1 1.2
2015-Jul-28 00:33N 40°39' W 074°02'5 5.4
2015-Jul-27 23:33N 40°39' W 074°09'2 2.0
2015-Jul-27 22:33N 40°41' W 074°08'0 0.0
2015-Jul-27 21:33N 40°41' W 074°08'0 0.0
2015-Jul-27 20:33N 40°41' W 074°08'0 0.0
2015-Jul-27 19:33N 40°41' W 074°08'0 0.0
2015-Jul-27 18:33N 40°41' W 074°08'3 2.7
2015-Jul-27 17:33N 40°39' W 074°07'3 3.2
2015-Jul-27 16:33N 40°38' W 074°03'0 0.1
2015-Jul-27 15:33N 40°38' W 074°03'0 0.0
2015-Jul-27 14:32N 40°38' W 074°03'0 0.0
2015-Jul-27 13:33N 40°38' W 074°03'0 0.0
2015-Jul-27 12:33N 40°38' W 074°03'3 2.8
2015-Jul-27 11:33N 40°39' W 074°06'4 4.3
2015-Jul-27 10:33N 40°40' W 074°01'0 0.4
2015-Jul-27 09:33N 40°40' W 074°00'0 0.0
2015-Jul-27 08:33N 40°40' W 074°00'0 0.0
2015-Jul-27 07:33N 40°40' W 074°00'0 0.0
2015-Jul-27 06:33N 40°40' W 074°00'0 0.0
2015-Jul-27 05:33N 40°40' W 074°00'0 0.0
2015-Jul-27 04:33N 40°40' W 074°00'0 0.0
2015-Jul-27 03:33N 40°40' W 074°00'0 0.0
2015-Jul-27 02:33N 40°40' W 074°00'1 1.4
2015-Jul-27 01:33N 40°39' W 074°02'5 5.3
2015-Jul-27 00:32N 40°39' W 074°09'2 2.3
2015-Jul-26 23:33N 40°41' W 074°09'0 0.0
2015-Jul-26 22:33N 40°41' W 074°09'0 0.0
2015-Jul-26 21:33N 40°41' W 074°09'0 0.0
2015-Jul-26 20:33N 40°41' W 074°09'0 0.0
2015-Jul-26 19:33N 40°41' W 074°09'0 0.0
2015-Jul-26 18:33N 40°41' W 074°09'0 0.0
2015-Jul-26 17:33N 40°41' W 074°09'0 0.0
2015-Jul-26 16:33N 40°41' W 074°09'3 2.9
2015-Jul-26 15:33N 40°39' W 074°07'4 4.4
2015-Jul-26 14:33N 40°40' W 074°01'1 0.7
2015-Jul-26 13:33N 40°40' W 074°00'0 0.0
2015-Jul-26 12:33N 40°40' W 074°00'3 2.6
2015-Jul-26 11:33N 40°39' W 074°04'1 0.9
2015-Jul-26 10:33N 40°38' W 074°04'0 0.2
2015-Jul-26 09:33N 40°38' W 074°04'0 0.0
2015-Jul-26 08:33N 40°38' W 074°04'0 0.2
2015-Jul-26 07:33N 40°38' W 074°04'2 2.0
2015-Jul-26 06:32N 40°39' W 074°07'1 0.6
2015-Jul-26 05:30N 40°38' W 074°07'0 0.0
2015-Jul-26 03:15N 40°38' W 074°07'0 0.0
2015-Jul-26 02:33N 40°38' W 074°07'0 0.0
2015-Jul-26 01:31N 40°38' W 074°07'1 0.7
2015-Jul-26 00:33N 40°39' W 074°06'3 2.5
2015-Jul-25 23:33N 40°40' W 074°03'3 2.4
2015-Jul-25 22:12N 40°38' W 074°07'1 0.4
2015-Jul-25 20:33N 40°39' W 074°07'1 1.3
2015-Jul-25 19:33N 40°39' W 074°08'5 5.5
2015-Jul-25 18:33N 40°41' W 074°02'1 1.3
2015-Jul-25 17:33N 40°41' W 074°00'0 0.0
2015-Jul-25 16:33N 40°41' W 074°00'0 0.1
2015-Jul-25 15:33N 40°41' W 074°00'2 1.5
2015-Jul-25 14:33N 40°40' W 074°01'3 2.7
2015-Jul-25 13:33N 40°38' W 074°04'3 3.4
2015-Jul-25 12:33N 40°40' W 074°00'0 0.0
2015-Jul-25 11:33N 40°40' W 074°00'0 0.4
2015-Jul-25 10:33N 40°40' W 074°01'4 4.3
2015-Jul-25 09:33N 40°39' W 074°06'1 1.0
2015-Jul-25 08:32N 40°38' W 074°07'0 0.0
2015-Jul-25 06:26N 40°38' W 074°07'0 0.0
2015-Jul-25 05:25N 40°38' W 074°07'0 0.0
2015-Jul-25 04:33N 40°38' W 074°07'0 0.0
2015-Jul-25 03:30N 40°38' W 074°07'0 0.0
2015-Jul-25 02:33N 40°38' W 074°07'0 0.0
2015-Jul-25 01:33N 40°38' W 074°07'0 0.0
2015-Jul-25 00:33N 40°38' W 074°07'0 0.0
2015-Jul-24 23:33N 40°38' W 074°07'3 3.3
2015-Jul-24 22:33N 40°40' W 074°03'1 0.7
2015-Jul-24 21:33N 40°39' W 074°04'3 1.2
2015-Jul-24 19:27N 40°38' W 074°07'0 0.0
2015-Jul-24 17:28N 40°38' W 074°07'0 0.0
2015-Jul-24 16:33N 40°38' W 074°07'0 0.0
2015-Jul-24 15:25N 40°38' W 074°07'4 4.4
2015-Jul-24 14:33N 40°40' W 074°03'2 2.3
2015-Jul-24 13:33N 40°39' W 074°05'0 0.1
2015-Jul-24 12:33N 40°39' W 074°05'1 1.4
2015-Jul-24 11:32N 40°38' W 074°07'0 0.0
2015-Jul-24 10:33N 40°38' W 074°07'0 0.0
2015-Jul-24 09:33N 40°38' W 074°07'0 0.0
2015-Jul-24 08:08N 40°38' W 074°07'0 0.0
2015-Jul-24 07:20N 40°38' W 074°07'0 0.0
2015-Jul-24 06:24N 40°38' W 074°07'0 0.4
2015-Jul-24 05:33N 40°39' W 074°07'2 1.6
2015-Jul-24 04:32N 40°39' W 074°09'3 2.4
2015-Jul-24 03:26N 40°41' W 074°09'0 0.0
2015-Jul-24 02:31N 40°41' W 074°09'0 0.0
2015-Jul-24 01:33N 40°41' W 074°09'0 0.0
2015-Jul-24 00:33N 40°41' W 074°09'0 0.0
2015-Jul-23 23:33N 40°41' W 074°09'0 0.0
2015-Jul-23 22:33N 40°41' W 074°09'0 0.0
2015-Jul-23 21:33N 40°41' W 074°09'0 0.5
2015-Jul-23 20:33N 40°41' W 074°09'2 2.4
2015-Jul-23 19:33N 40°39' W 074°10'1 0.6
2015-Jul-23 18:33N 40°39' W 074°11'0 0.0
2015-Jul-23 17:33N 40°39' W 074°11'0 0.0
2015-Jul-23 16:33N 40°39' W 074°11'0 0.0
2015-Jul-23 15:33N 40°39' W 074°11'6 5.9
2015-Jul-23 14:33N 40°39' W 074°03'1 1.5
2015-Jul-23 13:33N 40°40' W 074°03'0 0.0
2015-Jul-23 12:33N 40°40' W 074°03'3 2.8
2015-Jul-23 11:33N 40°39' W 074°06'1 1.0
2015-Jul-23 10:32N 40°38' W 074°07'0 0.0
2015-Jul-23 09:33N 40°38' W 074°07'0 0.0
2015-Jul-23 08:30N 40°38' W 074°07'0 0.0
2015-Jul-23 05:32N 40°39' W 074°07'1 1.4
2015-Jul-23 04:33N 40°39' W 074°09'2 2.4
2015-Jul-23 03:33N 40°41' W 074°10'0 0.0
2015-Jul-23 02:33N 40°41' W 074°10'0 0.0
2015-Jul-23 01:33N 40°41' W 074°10'0 0.0
2015-Jul-23 00:33N 40°41' W 074°10'0 0.5
2015-Jul-22 23:33N 40°41' W 074°09'1 0.9
2015-Jul-22 22:33N 40°40' W 074°08'2 1.9
2015-Jul-22 21:33N 40°39' W 074°06'3 2.9
2015-Jul-22 20:33N 40°40' W 074°03'4 3.5
2015-Jul-22 19:33N 40°38' W 074°07'0 0.0
2015-Jul-22 18:32N 40°38' W 074°07'0 0.0
2015-Jul-22 17:31N 40°38' W 074°07'5 5.7
2015-Jul-22 16:33N 40°40' W 074°00'5 4.5
2015-Jul-22 15:33N 40°39' W 074°06'3 3.3
2015-Jul-22 14:33N 40°41' W 074°09'0 0.4
2015-Jul-22 13:33N 40°41' W 074°09'0 0.0
2015-Jul-22 12:33N 40°41' W 074°09'0 0.0
2015-Jul-22 11:33N 40°41' W 074°09'0 0.0
2015-Jul-22 10:33N 40°41' W 074°09'0 0.0
2015-Jul-22 09:33N 40°41' W 074°09'0 0.0
2015-Jul-22 08:33N 40°41' W 074°09'3 2.9
2015-Jul-22 07:33N 40°39' W 074°06'1 1.5
2015-Jul-22 06:33N 40°39' W 074°04'2 1.2
2015-Jul-22 04:33N 40°39' W 074°07'0 0.0
2015-Jul-22 03:32N 40°39' W 074°07'0 0.0
2015-Jul-22 02:33N 40°39' W 074°07'0 0.0
2015-Jul-22 01:33N 40°39' W 074°07'0 0.1
2015-Jul-22 00:33N 40°39' W 074°07'2 2.4
2015-Jul-21 23:33N 40°41' W 074°09'3 3.0
2015-Jul-21 22:34N 40°39' W 074°05'0 0.1
2015-Jul-21 21:33N 40°39' W 074°05'1 1.5
2015-Jul-21 20:33N 40°38' W 074°07'0 0.0
2015-Jul-21 19:28N 40°38' W 074°07'0 0.0
2015-Jul-21 18:06N 40°38' W 074°07'0 0.0
2015-Jul-21 17:24N 40°38' W 074°07'0 0.0
2015-Jul-21 16:31N 40°38' W 074°07'0 0.0
2015-Jul-21 15:33N 40°38' W 074°07'0 0.0
2015-Jul-21 14:31N 40°38' W 074°07'0 0.0
2015-Jul-21 13:33N 40°38' W 074°07'0 0.0
2015-Jul-21 12:33N 40°38' W 074°07'0 0.0
2015-Jul-21 11:25N 40°38' W 074°07'0 0.0
2015-Jul-21 10:33N 40°38' W 074°07'0 0.0
2015-Jul-21 09:31N 40°38' W 074°07'0 0.0
2015-Jul-21 08:30N 40°38' W 074°07'0 0.0
2015-Jul-21 07:32N 40°38' W 074°07'0 0.0
2015-Jul-21 06:31N 40°38' W 074°07'0 0.0
2015-Jul-21 05:33N 40°38' W 074°07'0 0.0
2015-Jul-21 04:33N 40°38' W 074°07'0 0.0
2015-Jul-21 03:21N 40°38' W 074°07'0 0.0
2015-Jul-21 02:33N 40°38' W 074°07'0 0.0
2015-Jul-21 01:27N 40°38' W 074°07'0 0.0
2015-Jul-21 00:32N 40°38' W 074°07'0 0.0
2015-Jul-20 23:25N 40°38' W 074°07'  
Track history (hours):
 
Tides and Currents Weather Stations Pressure Air Temp Water Temp Dewpoint Dewpoint Depression Visibility Wind Speed Wind Dir Waves Ship Positions

Emerald Coast

Owner: Dann Marine Towing, LC, Chesapeake City, MD. More information available from US FCC via Universal Licensing System and Coast Guard Vessel Documentation Center.

Last reported at 2015-Jul-30 22:33 UTC. Time now 2015-Jul-30 23:02 UTC.
Position N 40°40' W 074°01'.

Length 28 m; draft 3 m.

Type: Towing. MMSI: 367097920.

Date/timePositionNaut miles runAvg speedWind from/ knotsBaromVisibWave heightAir tempDewpointWater temp
2015-Jul-30 22:33N 40°40' W 074°01'3 2.9
2015-Jul-30 21:33N 40°40' W 074°05'0 0.2
2015-Jul-30 20:33N 40°40' W 074°05'1 0.5
2015-Jul-30 19:33N 40°40' W 074°04'3 2.7
2015-Jul-30 18:33N 40°38' W 074°07'0 0.0
2015-Jul-30 17:20N 40°38' W 074°07'0 0.0
2015-Jul-30 16:30N 40°38' W 074°07'3 0.5
2015-Jul-30 11:33N 40°39' W 074°04'1 1.0
2015-Jul-30 10:33N 40°39' W 074°05'2 1.7
2015-Jul-30 09:33N 40°39' W 074°07'0 0.1
2015-Jul-30 08:32N 40°38' W 074°07'0 0.0
2015-Jul-30 07:30N 40°38' W 074°07'0 0.0
2015-Jul-30 06:32N 40°38' W 074°07'0 0.0
2015-Jul-30 05:30N 40°38' W 074°07'0 0.0
2015-Jul-30 04:11N 40°38' W 074°07'0 0.0
2015-Jul-30 03:12N 40°38' W 074°07'0 0.0
2015-Jul-30 02:29N 40°38' W 074°07'0 0.0
2015-Jul-30 01:26N 40°38' W 074°07'4 4.2
2015-Jul-30 00:33N 40°39' W 074°02'2 1.7
2015-Jul-29 23:33N 40°41' W 074°03'2 2.0
2015-Jul-29 22:33N 40°39' W 074°05'4 3.5
2015-Jul-29 21:33N 40°40' W 074°00'0 0.0
2015-Jul-29 20:33N 40°40' W 074°00'0 0.1
2015-Jul-29 19:33N 40°40' W 074°00'4 4.0
2015-Jul-29 18:33N 40°39' W 074°05'1 1.4
2015-Jul-29 17:30N 40°38' W 074°07'5 5.5
2015-Jul-29 16:33N 40°40' W 074°01'1 1.2
2015-Jul-29 15:33N 40°41' W 074°01'6 5.6
2015-Jul-29 14:33N 40°39' W 074°07'5 4.9
2015-Jul-29 13:30N 40°35' W 074°13'3 2.7
2015-Jul-29 12:33N 40°38' W 074°12'4 4.2
2015-Jul-29 11:33N 40°41' W 074°09'0 0.0
2015-Jul-29 10:33N 40°41' W 074°09'0 0.0
2015-Jul-29 09:33N 40°41' W 074°09'0 0.0
2015-Jul-29 08:33N 40°41' W 074°09'0 0.0
2015-Jul-29 07:33N 40°41' W 074°09'0 0.0
2015-Jul-29 06:33N 40°41' W 074°09'0 0.0
2015-Jul-29 05:33N 40°41' W 074°09'0 0.0
2015-Jul-29 04:33N 40°41' W 074°09'2 2.0
2015-Jul-29 03:33N 40°39' W 074°09'2 1.2
2015-Jul-29 01:33N 40°38' W 074°12'2 2.1
2015-Jul-29 00:33N 40°36' W 074°12'4 4.4
2015-Jul-28 23:33N 40°40' W 074°09'2 1.6
2015-Jul-28 22:33N 40°41' W 074°10'1 0.8
2015-Jul-28 21:33N 40°41' W 074°09'4 3.7
2015-Jul-28 20:33N 40°39' W 074°04'2 1.9
2015-Jul-28 19:33N 40°37' W 074°03'0 0.2
2015-Jul-28 18:33N 40°37' W 074°03'0 0.1
2015-Jul-28 17:33N 40°37' W 074°03'0 0.0
2015-Jul-28 16:33N 40°37' W 074°03'0 0.0
2015-Jul-28 15:33N 40°37' W 074°03'0 0.0
2015-Jul-28 14:33N 40°37' W 074°03'0 0.0
2015-Jul-28 13:33N 40°37' W 074°03'3 3.4
2015-Jul-28 12:33N 40°40' W 074°01'2 1.6
2015-Jul-28 11:33N 40°41' W 074°00'0 0.0
2015-Jul-28 10:33N 40°41' W 074°00'0 0.0
2015-Jul-28 09:33N 40°41' W 074°00'0 0.0
2015-Jul-28 08:33N 40°41' W 074°00'0 0.0
2015-Jul-28 07:33N 40°41' W 074°00'0 0.0
2015-Jul-28 06:33N 40°41' W 074°00'1 1.5
2015-Jul-28 05:33N 40°40' W 074°00'0 0.0
2015-Jul-28 04:33N 40°40' W 074°00'0 0.0
2015-Jul-28 03:33N 40°40' W 074°00'0 0.0
2015-Jul-28 02:33N 40°40' W 074°00'0 0.0
2015-Jul-28 01:33N 40°40' W 074°00'1 1.2
2015-Jul-28 00:33N 40°39' W 074°02'5 5.4
2015-Jul-27 23:33N 40°39' W 074°09'2 2.0
2015-Jul-27 22:33N 40°41' W 074°08'0 0.0
2015-Jul-27 21:33N 40°41' W 074°08'0 0.0
2015-Jul-27 20:33N 40°41' W 074°08'0 0.0
2015-Jul-27 19:33N 40°41' W 074°08'0 0.0
2015-Jul-27 18:33N 40°41' W 074°08'3 2.7
2015-Jul-27 17:33N 40°39' W 074°07'3 3.2
2015-Jul-27 16:33N 40°38' W 074°03'0 0.1
2015-Jul-27 15:33N 40°38' W 074°03'0 0.0
2015-Jul-27 14:32N 40°38' W 074°03'0 0.0
2015-Jul-27 13:33N 40°38' W 074°03'0 0.0
2015-Jul-27 12:33N 40°38' W 074°03'3 2.8
2015-Jul-27 11:33N 40°39' W 074°06'4 4.3
2015-Jul-27 10:33N 40°40' W 074°01'0 0.4
2015-Jul-27 09:33N 40°40' W 074°00'0 0.0
2015-Jul-27 08:33N 40°40' W 074°00'0 0.0
2015-Jul-27 07:33N 40°40' W 074°00'0 0.0
2015-Jul-27 06:33N 40°40' W 074°00'0 0.0
2015-Jul-27 05:33N 40°40' W 074°00'0 0.0
2015-Jul-27 04:33N 40°40' W 074°00'0 0.0
2015-Jul-27 03:33N 40°40' W 074°00'0 0.0
2015-Jul-27 02:33N 40°40' W 074°00'1 1.4
2015-Jul-27 01:33N 40°39' W 074°02'5 5.3
2015-Jul-27 00:32N 40°39' W 074°09'2 2.3
2015-Jul-26 23:33N 40°41' W 074°09'0 0.0
2015-Jul-26 22:33N 40°41' W 074°09'0 0.0
2015-Jul-26 21:33N 40°41' W 074°09'0 0.0
2015-Jul-26 20:33N 40°41' W 074°09'0 0.0
2015-Jul-26 19:33N 40°41' W 074°09'0 0.0
2015-Jul-26 18:33N 40°41' W 074°09'0 0.0
2015-Jul-26 17:33N 40°41' W 074°09'0 0.0
2015-Jul-26 16:33N 40°41' W 074°09'3 2.9
2015-Jul-26 15:33N 40°39' W 074°07'4 4.4
2015-Jul-26 14:33N 40°40' W 074°01'1 0.7
2015-Jul-26 13:33N 40°40' W 074°00'0 0.0
2015-Jul-26 12:33N 40°40' W 074°00'3 2.6
2015-Jul-26 11:33N 40°39' W 074°04'1 0.9
2015-Jul-26 10:33N 40°38' W 074°04'0 0.2
2015-Jul-26 09:33N 40°38' W 074°04'0 0.0
2015-Jul-26 08:33N 40°38' W 074°04'0 0.2
2015-Jul-26 07:33N 40°38' W 074°04'2 2.0
2015-Jul-26 06:32N 40°39' W 074°07'1 0.6
2015-Jul-26 05:30N 40°38' W 074°07'0 0.0
2015-Jul-26 03:15N 40°38' W 074°07'0 0.0
2015-Jul-26 02:33N 40°38' W 074°07'0 0.0
2015-Jul-26 01:31N 40°38' W 074°07'1 0.7
2015-Jul-26 00:33N 40°39' W 074°06'3 2.5
2015-Jul-25 23:33N 40°40' W 074°03'3 2.4
2015-Jul-25 22:12N 40°38' W 074°07'1 0.4
2015-Jul-25 20:33N 40°39' W 074°07'1 1.3
2015-Jul-25 19:33N 40°39' W 074°08'5 5.5
2015-Jul-25 18:33N 40°41' W 074°02'1 1.3
2015-Jul-25 17:33N 40°41' W 074°00'0 0.0
2015-Jul-25 16:33N 40°41' W 074°00'0 0.1
2015-Jul-25 15:33N 40°41' W 074°00'2 1.5
2015-Jul-25 14:33N 40°40' W 074°01'3 2.7
2015-Jul-25 13:33N 40°38' W 074°04'3 3.4
2015-Jul-25 12:33N 40°40' W 074°00'0 0.0
2015-Jul-25 11:33N 40°40' W 074°00'0 0.4
2015-Jul-25 10:33N 40°40' W 074°01'4 4.3
2015-Jul-25 09:33N 40°39' W 074°06'1 1.0
2015-Jul-25 08:32N 40°38' W 074°07'0 0.0
2015-Jul-25 06:26N 40°38' W 074°07'0 0.0
2015-Jul-25 05:25N 40°38' W 074°07'0 0.0
2015-Jul-25 04:33N 40°38' W 074°07'0 0.0
2015-Jul-25 03:30N 40°38' W 074°07'0 0.0
2015-Jul-25 02:33N 40°38' W 074°07'0 0.0
2015-Jul-25 01:33N 40°38' W 074°07'0 0.0
2015-Jul-25 00:33N 40°38' W 074°07'0 0.0
2015-Jul-24 23:33N 40°38' W 074°07'3 3.3
2015-Jul-24 22:33N 40°40' W 074°03'1 0.7
2015-Jul-24 21:33N 40°39' W 074°04'3 1.2
2015-Jul-24 19:27N 40°38' W 074°07'0 0.0
2015-Jul-24 17:28N 40°38' W 074°07'0 0.0
2015-Jul-24 16:33N 40°38' W 074°07'0 0.0
2015-Jul-24 15:25N 40°38' W 074°07'4 4.4
2015-Jul-24 14:33N 40°40' W 074°03'2 2.3
2015-Jul-24 13:33N 40°39' W 074°05'0 0.1
2015-Jul-24 12:33N 40°39' W 074°05'1 1.4
2015-Jul-24 11:32N 40°38' W 074°07'0 0.0
2015-Jul-24 10:33N 40°38' W 074°07'0 0.0
2015-Jul-24 09:33N 40°38' W 074°07'0 0.0
2015-Jul-24 08:08N 40°38' W 074°07'0 0.0
2015-Jul-24 07:20N 40°38' W 074°07'0 0.0
2015-Jul-24 06:24N 40°38' W 074°07'0 0.4
2015-Jul-24 05:33N 40°39' W 074°07'2 1.6
2015-Jul-24 04:32N 40°39' W 074°09'3 2.4
2015-Jul-24 03:26N 40°41' W 074°09'0 0.0
2015-Jul-24 02:31N 40°41' W 074°09'0 0.0
2015-Jul-24 01:33N 40°41' W 074°09'0 0.0
2015-Jul-24 00:33N 40°41' W 074°09'0 0.0
2015-Jul-23 23:33N 40°41' W 074°09'0 0.0
2015-Jul-23 22:33N 40°41' W 074°09'0 0.0
2015-Jul-23 21:33N 40°41' W 074°09'0 0.5
2015-Jul-23 20:33N 40°41' W 074°09'2 2.4
2015-Jul-23 19:33N 40°39' W 074°10'1 0.6
2015-Jul-23 18:33N 40°39' W 074°11'0 0.0
2015-Jul-23 17:33N 40°39' W 074°11'0 0.0
2015-Jul-23 16:33N 40°39' W 074°11'0 0.0
2015-Jul-23 15:33N 40°39' W 074°11'6 5.9
2015-Jul-23 14:33N 40°39' W 074°03'1 1.5
2015-Jul-23 13:33N 40°40' W 074°03'0 0.0
2015-Jul-23 12:33N 40°40' W 074°03'3 2.8
2015-Jul-23 11:33N 40°39' W 074°06'1 1.0
2015-Jul-23 10:32N 40°38' W 074°07'0 0.0
2015-Jul-23 09:33N 40°38' W 074°07'0 0.0
2015-Jul-23 08:30N 40°38' W 074°07'0 0.0
2015-Jul-23 05:32N 40°39' W 074°07'1 1.4
2015-Jul-23 04:33N 40°39' W 074°09'2 2.4
2015-Jul-23 03:33N 40°41' W 074°10'0 0.0
2015-Jul-23 02:33N 40°41' W 074°10'0 0.0
2015-Jul-23 01:33N 40°41' W 074°10'0 0.0
2015-Jul-23 00:33N 40°41' W 074°10'0 0.5
2015-Jul-22 23:33N 40°41' W 074°09'1 0.9
2015-Jul-22 22:33N 40°40' W 074°08'2 1.9
2015-Jul-22 21:33N 40°39' W 074°06'3 2.9
2015-Jul-22 20:33N 40°40' W 074°03'4 3.5
2015-Jul-22 19:33N 40°38' W 074°07'0 0.0
2015-Jul-22 18:32N 40°38' W 074°07'0 0.0
2015-Jul-22 17:31N 40°38' W 074°07'5 5.7
2015-Jul-22 16:33N 40°40' W 074°00'5 4.5
2015-Jul-22 15:33N 40°39' W 074°06'3 3.3
2015-Jul-22 14:33N 40°41' W 074°09'0 0.4
2015-Jul-22 13:33N 40°41' W 074°09'0 0.0
2015-Jul-22 12:33N 40°41' W 074°09'0 0.0
2015-Jul-22 11:33N 40°41' W 074°09'0 0.0
2015-Jul-22 10:33N 40°41' W 074°09'0 0.0
2015-Jul-22 09:33N 40°41' W 074°09'0 0.0
2015-Jul-22 08:33N 40°41' W 074°09'3 2.9
2015-Jul-22 07:33N 40°39' W 074°06'1 1.5
2015-Jul-22 06:33N 40°39' W 074°04'2 1.2
2015-Jul-22 04:33N 40°39' W 074°07'0 0.0
2015-Jul-22 03:32N 40°39' W 074°07'0 0.0
2015-Jul-22 02:33N 40°39' W 074°07'0 0.0
2015-Jul-22 01:33N 40°39' W 074°07'0 0.1
2015-Jul-22 00:33N 40°39' W 074°07'2 2.4
2015-Jul-21 23:33N 40°41' W 074°09'3 3.0
2015-Jul-21 22:34N 40°39' W 074°05'0 0.1
2015-Jul-21 21:33N 40°39' W 074°05'1 1.5
2015-Jul-21 20:33N 40°38' W 074°07'0 0.0
2015-Jul-21 19:28N 40°38' W 074°07'0 0.0
2015-Jul-21 18:06N 40°38' W 074°07'0 0.0
2015-Jul-21 17:24N 40°38' W 074°07'0 0.0
2015-Jul-21 16:31N 40°38' W 074°07'0 0.0
2015-Jul-21 15:33N 40°38' W 074°07'0 0.0
2015-Jul-21 14:31N 40°38' W 074°07'0 0.0
2015-Jul-21 13:33N 40°38' W 074°07'0 0.0
2015-Jul-21 12:33N 40°38' W 074°07'0 0.0
2015-Jul-21 11:25N 40°38' W 074°07'0 0.0
2015-Jul-21 10:33N 40°38' W 074°07'0 0.0
2015-Jul-21 09:31N 40°38' W 074°07'0 0.0
2015-Jul-21 08:30N 40°38' W 074°07'0 0.0
2015-Jul-21 07:32N 40°38' W 074°07'0 0.0
2015-Jul-21 06:31N 40°38' W 074°07'0 0.0
2015-Jul-21 05:33N 40°38' W 074°07'0 0.0
2015-Jul-21 04:33N 40°38' W 074°07'0 0.0
2015-Jul-21 03:21N 40°38' W 074°07'0 0.0
2015-Jul-21 02:33N 40°38' W 074°07'0 0.0
2015-Jul-21 01:27N 40°38' W 074°07'0 0.0
2015-Jul-21 00:32N 40°38' W 074°07'0 0.0
2015-Jul-20 23:25N 40°38' W 074°07'  

Dump ship's entire track history